Aérodrome :
LOGIN :

S'inscrire | Disclaimer

   EN    FR    IT 

 










Légende :    VFR   VFR Marginal   IFR   IFR Intensif   IFR Très Intensif
Visi : 
Plafond : 
>= 8 km
>= 3000ft
5 à 8 km
1000 à 3000 ft
1500m à 5 km
500 à 1000 ft
800 à 1500m
200 à 500 ft
< 800m
< 200 ft
Symboles :   Orages  Brouillard  Fortes neiges  Fortes précipitations  Vent > 20 kt
SIGMETs :   Divers  Orages  Givrage  Turbulence  Onde Orograph.  Cendres Volcan.







- Altitude de l'aérodrome : 856 ft
- Code IATA : VGO


LEVX - Vigo Peinador

DERNIER METAR :
  • 191530Z 26013KT 220V290 CAVOK 22/16 Q1015 NOSIG

METARs EXPIRÉS :
  • 191500Z 25014KT CAVOK 23/16 Q1015 NOSIG
  • 191430Z 26011KT 230V300 CAVOK 24/16 Q1015 NOSIG
  • 191400Z 27011KT 220V300 CAVOK 25/17 Q1015 NOSIG
  • 191330Z 26011KT 220V300 CAVOK 25/17 Q1015 NOSIG

TAF AMD TAF LEVX
Valide du 19 à 15h jusqu'au 20 à 12h UTC


191540Z 1915/2012 29012KT CAVOK TX22/1915Z TN17/2005Z
PROB30
TEMPO 1917/1919 4000 BR
BECMG 1919/1921 VRB06KT 3000 BR BCFG
TEMPO 1919/2007 1200 BCFG BKN005
PROB40
TEMPO 2000/2006 0350 FG VV001
BECMG 2007/2009 9000 NSW
Pas de NOTAMs connus pour ce terrain.



MET'MAP, la Météo Aéronautique d'un coup d'oeil ! - Copyright ORBIFLY Décembre 2007 - Disclaimer

ORBIFLY MET'MAP TEAM :

Programmation & Développement : Alexandra Zaïnal
Conception & Développement : Baudouin d'Aumeries
Co-Programmation & Développement : Marc-Olivier Méhu
Soutien technique & logistique : Manuel Goepfert

Contact : metmap@orbifly.com




SOURCES & CREDITS :

   NOAA